Time;durP1;ratioP1;P1;durP2;ratioP2;P2;SDS_P1;SDS_P2;PMS_P1;PMS_P2;Temp;Humidity;BMP_temperature;BMP_pressure;BME280_temperature;BME280_humidity;BME280_pressure;Samples;Min_cycle;Max_cycle;Signal;HPM_P1;HPM_P2
2023/01/06 00:01:22;;;;;;;6.73;1.93;;;10.70;99.90;;;;;;5118363;28;20180;-78
2023/01/06 00:03:52;;;;;;;2.43;1.47;;;10.70;99.90;;;;;;5118432;28;20193;-77
2023/01/06 00:06:21;;;;;;;2.73;1.57;;;10.70;99.90;;;;;;5118828;28;20158;-78
2023/01/06 00:08:47;;;;;;;2.63;1.37;;;10.70;99.90;;;;;;5119334;28;20261;-78
2023/01/06 00:11:14;;;;;;;5.83;1.50;;;10.70;99.90;;;;;;5118728;28;20260;-78
2023/01/06 00:13:40;;;;;;;6.33;1.63;;;10.70;99.90;;;;;;5100457;28;20223;-78
2023/01/06 00:16:08;;;;;;;7.37;1.80;;;10.80;99.90;;;;;;5100255;28;20204;-78
2023/01/06 00:18:34;;;;;;;5.47;1.43;;;10.80;99.90;;;;;;5118747;28;20519;-77
2023/01/06 00:21:01;;;;;;;6.37;1.60;;;10.70;99.90;;;;;;5118899;28;20172;-78
2023/01/06 00:23:27;;;;;;;3.30;1.80;;;10.70;99.90;;;;;;5117750;28;20205;-77
2023/01/06 00:25:52;;;;;;;4.80;1.60;;;10.70;99.90;;;;;;5100380;28;20169;-78
2023/01/06 00:28:18;;;;;;;7.13;1.40;;;10.80;99.90;;;;;;5100011;28;20202;-78
2023/01/06 00:30:44;;;;;;;4.60;1.40;;;10.70;99.90;;;;;;5118461;28;20252;-78
2023/01/06 00:33:09;;;;;;;5.60;1.50;;;10.70;99.90;;;;;;5099356;28;20750;-78
2023/01/06 00:35:35;;;;;;;2.60;1.57;;;10.70;99.90;;;;;;5118436;28;20260;-77
2023/01/06 00:38:00;;;;;;;4.10;1.57;;;10.70;99.90;;;;;;5117943;28;20193;-78
2023/01/06 00:40:26;;;;;;;3.07;1.50;;;10.70;99.90;;;;;;5118184;28;20172;-78
2023/01/06 00:42:51;;;;;;;3.67;1.30;;;10.70;99.90;;;;;;5099096;28;20212;-78
2023/01/06 00:45:17;;;;;;;2.13;1.37;;;10.70;99.90;;;;;;5117810;28;20173;-78
2023/01/06 00:47:42;;;;;;;4.43;1.60;;;10.70;99.90;;;;;;5117772;28;20165;-78
2023/01/06 00:50:08;;;;;;;4.17;1.67;;;10.70;99.90;;;;;;5099888;28;20185;-78
2023/01/06 00:52:34;;;;;;;3.27;1.03;;;10.70;99.90;;;;;;5118219;28;20197;-78
2023/01/06 00:55:00;;;;;;;3.80;1.43;;;10.70;99.90;;;;;;5116748;28;20509;-78
2023/01/06 00:57:25;;;;;;;4.13;1.33;;;10.60;99.90;;;;;;5117989;28;20196;-78
2023/01/06 00:59:51;;;;;;;6.60;1.67;;;10.60;99.90;;;;;;5099118;28;20180;-78
2023/01/06 01:02:17;;;;;;;4.13;1.47;;;10.60;99.90;;;;;;5117192;28;20198;-78
2023/01/06 01:04:42;;;;;;;2.70;1.27;;;10.60;99.90;;;;;;5117861;28;20169;-78
2023/01/06 01:07:09;;;;;;;3.07;1.20;;;10.60;99.90;;;;;;5118016;28;20193;-78
2023/01/06 01:09:34;;;;;;;6.70;1.20;;;10.60;99.90;;;;;;5100099;28;20596;-78
2023/01/06 01:12:09;;;;;;;3.63;1.10;;;10.60;99.90;;;;;;5099632;28;20197;-78
2023/01/06 01:14:49;;;;;;;4.37;1.43;;;10.60;99.90;;;;;;5117855;28;20203;-78
2023/01/06 01:17:21;;;;;;;5.13;1.30;;;10.60;99.90;;;;;;5118373;28;20188;-78
2023/01/06 01:19:47;;;;;;;6.00;1.30;;;10.50;99.90;;;;;;5118395;28;20161;-78
2023/01/06 01:22:13;;;;;;;3.30;1.13;;;10.50;99.90;;;;;;5124112;28;20209;-77
2023/01/06 01:24:39;;;;;;;5.50;1.27;;;10.50;99.90;;;;;;5127763;28;20199;-78
2023/01/06 01:27:05;;;;;;;2.60;1.17;;;10.50;99.90;;;;;;5122340;28;20191;-78
2023/01/06 01:29:30;;;;;;;1.40;1.00;;;10.50;99.90;;;;;;5098468;28;20177;-78
2023/01/06 01:31:56;;;;;;;1.77;1.33;;;10.50;99.90;;;;;;5116340;28;20226;-78
2023/01/06 01:34:22;;;;;;;3.90;1.07;;;10.50;99.90;;;;;;5116844;28;20178;-78
2023/01/06 01:36:49;;;;;;;3.33;1.10;;;10.50;99.90;;;;;;5116622;28;20208;-77
2023/01/06 01:39:17;;;;;;;2.27;0.90;;;10.50;99.90;;;;;;5098260;28;20631;-77
2023/01/06 01:41:43;;;;;;;2.77;0.97;;;10.50;99.90;;;;;;5116387;28;20170;-78
2023/01/06 01:44:50;;;;;;;2.33;1.13;;;10.50;99.90;;;;;;5116424;28;20198;-78
2023/01/06 01:47:28;;;;;;;2.50;1.00;;;10.50;99.90;;;;;;5098862;28;20181;-78
2023/01/06 01:49:58;;;;;;;2.43;1.20;;;10.50;99.90;;;;;;5116854;28;20166;-78
2023/01/06 01:52:25;;;;;;;3.23;1.10;;;10.50;99.90;;;;;;5116315;28;20201;-78
2023/01/06 01:54:52;;;;;;;2.80;1.10;;;10.50;99.90;;;;;;5116056;28;20169;-78
2023/01/06 01:57:24;;;;;;;5.40;1.23;;;10.50;99.90;;;;;;5111516;22;20595;-81
2023/01/06 01:59:50;;;;;;;5.00;1.23;;;10.40;99.90;;;;;;5079465;28;20175;-81
2023/01/06 02:02:17;;;;;;;4.17;1.00;;;10.50;99.90;;;;;;5079930;28;20170;-81
2023/01/06 02:04:47;;;;;;;3.13;1.10;;;10.50;99.90;;;;;;5079098;28;20171;-81
2023/01/06 02:07:13;;;;;;;2.03;0.93;;;10.40;99.90;;;;;;5080539;28;20226;-81
2023/01/06 02:09:50;;;;;;;3.50;0.90;;;10.40;99.90;;;;;;5088902;28;20194;-81
2023/01/06 02:12:16;;;;;;;1.97;0.87;;;10.40;99.90;;;;;;5090791;28;20170;-81
2023/01/06 02:14:41;;;;;;;1.97;1.20;;;10.40;99.90;;;;;;5090823;28;20182;-81
2023/01/06 02:17:28;;;;;;;3.83;1.27;;;10.40;99.90;;;;;;5077752;28;20214;-81
2023/01/06 02:20:29;;;;;;;7.63;1.20;;;10.40;99.90;;;;;;5077352;28;20167;-81
2023/01/06 02:23:10;;;;;;;7.60;1.43;;;10.40;99.90;;;;;;5078245;28;20174;-81
2023/01/06 02:26:12;;;;;;;4.40;0.90;;;10.40;99.90;;;;;;5077574;28;20158;-81
2023/01/06 02:28:53;;;;;;;1.97;0.77;;;10.40;99.90;;;;;;5078409;28;20209;-81
2023/01/06 02:35:05;;;;;;;5.17;1.40;;;10.40;99.90;;;;;;5078454;28;20166;-81
2023/01/06 02:37:47;;;;;;;2.47;1.07;;;10.40;99.90;;;;;;5077864;28;20205;-81
2023/01/06 02:40:39;;;;;;;4.03;1.13;;;10.40;99.90;;;;;;5076403;28;20198;-82
2023/01/06 02:43:14;;;;;;;2.53;1.07;;;10.50;99.90;;;;;;5078071;28;20210;-82
2023/01/06 02:45:56;;;;;;;3.73;0.93;;;10.40;99.90;;;;;;5076536;28;20162;-81
2023/01/06 02:49:04;;;;;;;5.17;1.03;;;10.40;99.90;;;;;;5079618;28;20232;-81
2023/01/06 02:51:38;;;;;;;6.13;1.27;;;10.40;99.90;;;;;;5074577;28;20679;-82
2023/01/06 02:54:26;;;;;;;2.47;1.20;;;10.40;99.90;;;;;;5078837;28;20181;-82
2023/01/06 02:57:01;;;;;;;4.17;1.47;;;10.40;99.90;;;;;;5080550;28;20284;-81
2023/01/06 02:59:33;;;;;;;3.93;1.03;;;10.40;99.90;;;;;;5089874;28;20214;-82
2023/01/06 03:02:01;;;;;;;2.00;1.10;;;10.40;99.90;;;;;;5096793;28;20175;-82
2023/01/06 03:04:37;;;;;;;2.67;1.00;;;10.40;99.90;;;;;;5088796;28;20634;-82
2023/01/06 03:07:05;;;;;;;4.93;1.27;;;10.40;99.90;;;;;;5077948;28;20247;-81
2023/01/06 03:09:35;;;;;;;3.37;1.07;;;10.40;99.90;;;;;;5078334;28;20618;-81
2023/01/06 03:12:07;;;;;;;4.20;1.17;;;10.80;99.90;;;;;;5078476;28;20170;-81
2023/01/06 03:14:38;;;;;;;5.07;1.43;;;10.40;99.90;;;;;;5076243;28;20175;-81
2023/01/06 03:17:03;;;;;;;5.13;1.07;;;10.40;99.90;;;;;;5077662;28;20214;-81
2023/01/06 03:19:30;;;;;;;2.13;1.00;;;10.40;99.90;;;;;;5081019;28;20237;-81
2023/01/06 03:21:58;;;;;;;3.27;1.00;;;10.30;99.90;;;;;;5081755;28;20186;-81
2023/01/06 03:24:24;;;;;;;4.97;1.00;;;10.40;99.90;;;;;;5081896;28;20671;-81
2023/01/06 03:26:51;;;;;;;6.53;1.03;;;10.40;99.90;;;;;;5080524;28;20195;-81
2023/01/06 03:29:17;;;;;;;4.90;1.00;;;10.40;99.90;;;;;;5080317;28;20178;-81
2023/01/06 03:31:48;;;;;;;4.47;1.37;;;10.40;99.90;;;;;;5081752;28;20555;-81
2023/01/06 03:34:25;;;;;;;3.70;0.97;;;10.40;99.90;;;;;;5080316;28;20201;-81
2023/01/06 03:37:07;;;;;;;2.20;0.90;;;10.40;99.90;;;;;;5079800;28;20202;-81
2023/01/06 03:39:49;;;;;;;4.70;1.00;;;10.40;99.90;;;;;;5079772;28;20174;-81
2023/01/06 03:45:55;;;;;;;3.40;1.00;;;10.40;99.90;;;;;;5057225;28;20235;-81
2023/01/06 03:48:38;;;;;;;1.87;0.90;;;10.40;99.90;;;;;;5080360;28;20195;-82
2023/01/06 03:51:08;;;;;;;4.43;1.03;;;10.40;99.90;;;;;;5081101;28;20262;-81
2023/01/06 03:54:03;;;;;;;3.87;1.10;;;10.40;99.90;;;;;;5080180;28;20179;-81
2023/01/06 03:56:51;;;;;;;3.27;1.10;;;10.40;99.90;;;;;;5080521;28;20195;-81
2023/01/06 03:59:25;;;;;;;5.17;1.27;;;10.40;99.90;;;;;;5069825;28;20183;-81
2023/01/06 04:01:50;;;;;;;6.73;1.00;;;10.40;99.90;;;;;;5081599;28;20229;-81
2023/01/06 04:04:17;;;;;;;1.33;0.80;;;10.40;99.90;;;;;;5079483;28;20183;-81
2023/01/06 04:06:43;;;;;;;1.40;0.90;;;10.40;99.90;;;;;;5081131;28;20190;-80
2023/01/06 04:09:08;;;;;;;3.47;0.77;;;10.40;99.90;;;;;;5080663;28;20178;-81
2023/01/06 04:14:19;;;;;;;1.70;0.80;;;11.20;99.90;;;;;;5081297;28;20163;-81
2023/01/06 04:16:44;;;;;;;5.17;0.90;;;10.40;99.90;;;;;;5080698;28;20202;-81
2023/01/06 04:19:10;;;;;;;3.17;0.90;;;10.40;99.90;;;;;;5079449;28;20187;-82
2023/01/06 04:21:35;;;;;;;3.10;0.70;;;10.40;99.90;;;;;;5080897;28;20171;-81
2023/01/06 04:24:01;;;;;;;6.03;1.00;;;10.40;99.90;;;;;;5080611;28;20217;-82
2023/01/06 04:26:26;;;;;;;3.17;0.87;;;10.40;99.90;;;;;;5080990;28;20169;-81
2023/01/06 04:28:52;;;;;;;3.93;1.10;;;10.40;99.90;;;;;;5081031;28;20179;-81
2023/01/06 04:31:18;;;;;;;4.00;1.07;;;10.50;99.90;;;;;;5079784;28;20175;-81
2023/01/06 04:33:43;;;;;;;2.57;1.00;;;10.50;99.90;;;;;;5079316;28;20721;-81
2023/01/06 04:36:09;;;;;;;3.53;1.00;;;10.50;99.90;;;;;;5080564;28;20216;-81
2023/01/06 04:38:34;;;;;;;1.23;0.80;;;10.50;99.90;;;;;;5079151;28;20202;-81
2023/01/06 04:41:00;;;;;;;3.03;1.07;;;10.50;99.90;;;;;;5079576;28;20202;-82
2023/01/06 04:43:25;;;;;;;4.37;1.03;;;10.50;99.90;;;;;;5079333;28;20186;-82
2023/01/06 04:45:51;;;;;;;3.83;1.00;;;10.50;99.90;;;;;;5080662;28;20182;-82
2023/01/06 04:48:16;;;;;;;1.00;0.77;;;10.50;99.90;;;;;;5079521;28;20198;-81
2023/01/06 04:50:42;;;;;;;3.53;0.90;;;10.50;99.90;;;;;;5078976;28;20181;-81
2023/01/06 04:53:09;;;;;;;2.60;0.60;;;10.50;99.90;;;;;;5080513;28;20183;-81
2023/01/06 04:55:37;;;;;;;3.67;0.87;;;10.50;99.90;;;;;;5078392;28;20201;-82
2023/01/06 04:58:03;;;;;;;2.83;0.97;;;10.60;99.90;;;;;;5079650;28;20215;-81
2023/01/06 05:00:29;;;;;;;2.77;0.70;;;10.60;99.90;;;;;;5079813;28;20171;-81
2023/01/06 05:02:54;;;;;;;5.60;0.60;;;10.60;99.90;;;;;;5079555;28;20545;-81
2023/01/06 05:05:20;;;;;;;3.70;0.90;;;10.60;99.90;;;;;;5079454;28;20167;-82
2023/01/06 05:07:45;;;;;;;1.63;0.70;;;10.60;99.90;;;;;;5079289;28;20191;-81
2023/01/06 05:10:11;;;;;;;7.40;0.70;;;10.60;99.90;;;;;;5078775;28;20200;-81
2023/01/06 05:12:36;;;;;;;3.23;0.73;;;10.60;99.90;;;;;;5077542;28;20171;-81
2023/01/06 05:15:02;;;;;;;2.37;0.80;;;10.60;99.90;;;;;;5077321;28;20182;-81
2023/01/06 05:17:28;;;;;;;2.20;0.67;;;10.60;99.90;;;;;;5078986;28;20197;-81
2023/01/06 05:19:54;;;;;;;2.07;0.60;;;10.60;99.90;;;;;;5078921;28;20171;-81
2023/01/06 05:22:19;;;;;;;0.43;0.43;;;10.60;99.90;;;;;;5078921;28;20210;-81
2023/01/06 05:24:45;;;;;;;5.40;0.80;;;10.60;99.90;;;;;;5079011;28;20178;-81
2023/01/06 05:27:10;;;;;;;1.93;0.70;;;10.60;99.90;;;;;;5077571;28;20233;-81
2023/01/06 05:29:36;;;;;;;4.77;0.70;;;10.60;99.90;;;;;;5078763;28;20183;-81
2023/01/06 05:32:02;;;;;;;1.97;0.60;;;10.60;99.90;;;;;;5079145;28;20175;-81
2023/01/06 05:34:28;;;;;;;3.50;0.80;;;10.60;99.90;;;;;;5078769;28;20201;-81
2023/01/06 05:36:55;;;;;;;1.40;0.50;;;10.60;99.90;;;;;;5078800;28;20214;-82
2023/01/06 05:39:20;;;;;;;1.47;0.83;;;10.60;99.90;;;;;;5078592;28;20163;-81
2023/01/06 05:41:46;;;;;;;2.70;0.80;;;10.60;99.90;;;;;;5077203;28;20236;-81
2023/01/06 05:44:11;;;;;;;4.23;1.00;;;10.60;99.90;;;;;;5077482;28;20224;-81
2023/01/06 05:46:37;;;;;;;0.53;0.53;;;10.60;99.90;;;;;;5077626;28;20185;-81
2023/01/06 05:49:02;;;;;;;3.87;0.90;;;10.60;99.90;;;;;;5079333;28;20187;-82
2023/01/06 05:51:28;;;;;;;1.73;0.70;;;10.60;99.90;;;;;;5077815;28;20202;-81
2023/01/06 05:53:54;;;;;;;2.13;0.80;;;10.60;99.90;;;;;;5077365;28;20175;-81
2023/01/06 05:56:20;;;;;;;1.17;0.67;;;10.60;99.90;;;;;;5079737;28;20206;-80
2023/01/06 05:58:48;;;;;;;0.87;0.70;;;10.60;99.90;;;;;;5079661;28;20265;-81
2023/01/06 06:01:18;;;;;;;3.13;0.70;;;10.60;99.90;;;;;;5088704;28;20193;-81
2023/01/06 06:03:44;;;;;;;1.50;0.70;;;10.60;99.90;;;;;;5092076;28;20201;-81
2023/01/06 06:06:09;;;;;;;2.10;0.60;;;10.60;99.90;;;;;;5089414;28;20190;-81
2023/01/06 06:08:35;;;;;;;1.37;0.63;;;10.60;99.90;;;;;;5076462;28;20198;-81
2023/01/06 06:11:02;;;;;;;1.70;0.80;;;10.60;99.90;;;;;;5075889;28;20171;-81
2023/01/06 06:13:28;;;;;;;1.87;0.70;;;10.60;99.90;;;;;;5075102;28;20691;-81
2023/01/06 06:16:03;;;;;;;1.77;0.67;;;10.60;99.90;;;;;;5077747;28;20244;-81
2023/01/06 06:18:28;;;;;;;2.63;0.90;;;10.60;99.90;;;;;;5077494;28;20191;-81
2023/01/06 06:21:01;;;;;;;1.30;0.77;;;10.60;99.90;;;;;;5075352;28;20175;-81
2023/01/06 06:23:27;;;;;;;1.83;0.70;;;10.60;99.90;;;;;;5076245;28;20171;-81
2023/01/06 06:25:53;;;;;;;1.33;0.70;;;10.50;99.90;;;;;;5075877;28;20179;-81
2023/01/06 06:28:18;;;;;;;1.87;0.70;;;10.60;99.90;;;;;;5076931;28;20205;-83
2023/01/06 06:30:44;;;;;;;1.93;0.80;;;10.50;99.90;;;;;;5076347;28;20171;-81
2023/01/06 06:33:09;;;;;;;3.20;0.90;;;10.50;99.90;;;;;;5077505;28;20728;-81
2023/01/06 06:35:35;;;;;;;1.60;0.73;;;10.50;99.90;;;;;;5077849;28;20202;-81
2023/01/06 06:38:00;;;;;;;1.37;0.60;;;10.60;99.90;;;;;;5075664;28;20208;-81
2023/01/06 06:40:26;;;;;;;3.60;0.80;;;10.60;99.90;;;;;;5075778;28;20587;-81
2023/01/06 06:42:52;;;;;;;2.57;0.83;;;10.60;99.90;;;;;;5077026;28;20181;-81
2023/01/06 06:45:17;;;;;;;5.40;0.77;;;10.60;99.90;;;;;;5077523;28;20178;-83
2023/01/06 06:47:43;;;;;;;2.90;0.80;;;10.50;99.90;;;;;;5078008;28;20746;-83
2023/01/06 06:50:12;;;;;;;3.47;0.73;;;10.60;99.90;;;;;;5079912;28;20194;-80
2023/01/06 06:52:38;;;;;;;4.13;0.63;;;10.60;99.90;;;;;;5077931;28;20178;-81
2023/01/06 06:55:04;;;;;;;3.73;0.83;;;10.60;99.90;;;;;;5086276;28;20163;-83
2023/01/06 06:57:30;;;;;;;1.13;0.80;;;10.50;99.90;;;;;;5089410;28;20240;-82
2023/01/06 06:59:55;;;;;;;2.63;0.50;;;10.60;99.90;;;;;;5087679;28;20175;-80
2023/01/06 07:02:21;;;;;;;2.37;0.50;;;10.50;99.90;;;;;;5089734;28;20618;-81
2023/01/06 07:04:46;;;;;;;2.87;0.97;;;10.60;99.90;;;;;;5089821;28;20635;-81
2023/01/06 07:07:12;;;;;;;4.70;0.80;;;10.60;99.90;;;;;;5089830;28;20199;-81
2023/01/06 07:09:37;;;;;;;2.27;0.80;;;10.60;99.90;;;;;;5090641;28;20204;-81
2023/01/06 07:12:03;;;;;;;1.67;0.80;;;10.60;99.90;;;;;;5088349;28;20191;-81
2023/01/06 07:14:29;;;;;;;2.40;0.83;;;10.60;99.90;;;;;;5087364;28;20179;-80
2023/01/06 07:16:54;;;;;;;1.77;0.70;;;10.60;99.90;;;;;;5088797;28;20211;-80
2023/01/06 07:19:20;;;;;;;1.17;0.57;;;10.60;99.90;;;;;;5089547;28;20171;-81
2023/01/06 07:21:45;;;;;;;3.77;0.70;;;10.50;99.90;;;;;;5087390;28;20526;-81
2023/01/06 07:24:11;;;;;;;3.20;0.53;;;10.50;99.90;;;;;;5088006;28;20544;-80
2023/01/06 07:26:37;;;;;;;3.50;0.83;;;10.50;99.90;;;;;;5086775;28;20201;-82
2023/01/06 07:29:02;;;;;;;1.40;0.60;;;10.60;99.90;;;;;;5086609;28;20179;-80
2023/01/06 07:31:28;;;;;;;1.40;0.63;;;10.50;99.90;;;;;;5088477;28;20171;-81
2023/01/06 07:33:53;;;;;;;2.97;0.70;;;10.50;99.90;;;;;;5088308;28;20182;-82
2023/01/06 07:36:19;;;;;;;1.13;0.73;;;10.60;99.90;;;;;;5087597;28;20202;-81
2023/01/06 07:38:44;;;;;;;1.60;0.60;;;10.60;99.90;;;;;;5088236;28;20191;-81
2023/01/06 07:41:10;;;;;;;2.37;0.63;;;10.60;99.90;;;;;;5089418;28;20178;-81
2023/01/06 07:43:35;;;;;;;3.57;0.97;;;10.60;99.90;;;;;;5088988;28;20199;-81
2023/01/06 07:46:01;;;;;;;1.57;0.70;;;10.60;99.90;;;;;;5088533;28;20167;-80
2023/01/06 07:48:26;;;;;;;2.53;0.80;;;10.60;99.90;;;;;;5088327;28;20222;-81
2023/01/06 07:50:52;;;;;;;2.73;0.70;;;10.60;99.90;;;;;;5088127;28;20186;-81
2023/01/06 07:53:17;;;;;;;1.50;0.50;;;10.60;99.90;;;;;;5087354;28;20186;-80
2023/01/06 07:55:50;;;;;;;2.40;1.00;;;10.60;99.90;;;;;;5085051;28;20214;-81
2023/01/06 07:58:17;;;;;;;0.97;0.50;;;10.60;99.90;;;;;;5085072;28;20217;-80
2023/01/06 08:00:42;;;;;;;2.63;0.90;;;10.60;99.90;;;;;;5086385;28;20219;-81
2023/01/06 08:03:10;;;;;;;1.70;0.63;;;10.60;99.90;;;;;;5086171;28;20167;-80
2023/01/06 08:05:37;;;;;;;4.07;0.70;;;10.70;99.90;;;;;;5086092;28;20171;-80
2023/01/06 08:08:03;;;;;;;2.13;0.67;;;10.60;99.90;;;;;;5083725;28;20209;-81
2023/01/06 08:10:28;;;;;;;3.17;0.60;;;10.60;99.90;;;;;;5083529;28;20175;-81
2023/01/06 08:12:54;;;;;;;1.80;0.70;;;10.60;99.90;;;;;;5084872;28;20266;-81
2023/01/06 08:15:19;;;;;;;1.13;0.60;;;10.60;99.90;;;;;;5082934;28;20201;-81
2023/01/06 08:17:45;;;;;;;1.70;0.73;;;10.60;99.90;;;;;;5084073;28;20244;-80
2023/01/06 08:20:10;;;;;;;0.80;0.60;;;10.60;99.90;;;;;;5082014;28;20182;-80
2023/01/06 08:22:36;;;;;;;0.60;0.50;;;10.60;99.90;;;;;;5080913;28;20171;-81
2023/01/06 08:25:01;;;;;;;1.23;0.70;;;10.70;99.90;;;;;;5082395;28;20179;-81
2023/01/06 08:27:27;;;;;;;0.77;0.60;;;10.70;99.90;;;;;;5085482;28;20263;-81
2023/01/06 08:29:54;;;;;;;1.70;0.70;;;10.80;99.90;;;;;;5086322;28;20186;-81
2023/01/06 08:32:19;;;;;;;5.93;0.70;;;10.70;99.90;;;;;;5083793;28;20273;-81
2023/01/06 08:34:45;;;;;;;5.23;0.70;;;10.70;99.90;;;;;;5084221;28;20199;-81
2023/01/06 08:37:11;;;;;;;0.80;0.53;;;10.80;99.90;;;;;;5083094;28;20213;-80
2023/01/06 08:39:36;;;;;;;1.60;0.50;;;10.80;99.90;;;;;;5082579;28;20167;-81
2023/01/06 08:42:02;;;;;;;0.83;0.70;;;10.80;99.90;;;;;;5083087;28;20194;-81
2023/01/06 08:44:28;;;;;;;0.93;0.60;;;10.80;99.90;;;;;;5084498;28;20655;-81
2023/01/06 08:46:53;;;;;;;0.60;0.57;;;10.80;99.90;;;;;;5084004;28;20187;-81
2023/01/06 08:49:19;;;;;;;0.93;0.43;;;10.80;99.90;;;;;;5083316;28;20209;-81
2023/01/06 08:51:44;;;;;;;1.97;0.60;;;10.80;99.90;;;;;;5083066;28;20204;-81
2023/01/06 08:54:10;;;;;;;0.40;0.40;;;10.90;99.90;;;;;;5083449;28;20186;-81
2023/01/06 08:56:35;;;;;;;0.77;0.60;;;10.90;99.90;;;;;;5082129;28;20198;-81
2023/01/06 08:59:02;;;;;;;2.83;0.70;;;10.90;99.90;;;;;;5084993;28;20246;-80
2023/01/06 09:01:32;;;;;;;2.37;0.50;;;10.90;99.90;;;;;;5084154;28;20544;-81
2023/01/06 09:04:00;;;;;;;0.90;0.60;;;10.90;99.90;;;;;;5084432;28;20185;-82
2023/01/06 09:06:27;;;;;;;1.17;0.90;;;10.90;99.90;;;;;;5087096;22;20233;-94
2023/01/06 09:08:55;;;;;;;2.10;0.77;;;11.60;99.90;;;;;;5078753;28;20202;-93
2023/01/06 09:11:21;;;;;;;1.20;0.63;;;10.80;99.90;;;;;;5079008;28;20193;-92
2023/01/06 09:13:49;;;;;;;1.70;0.60;;;12.00;99.90;;;;;;5077589;28;20269;-94
2023/01/06 09:16:15;;;;;;;0.73;0.70;;;10.90;99.90;;;;;;5074821;28;20211;-93
2023/01/06 09:18:46;;;;;;;2.40;0.63;;;10.90;99.90;;;;;;5094993;23;20234;-78
2023/01/06 09:21:11;;;;;;;1.40;0.60;;;10.90;99.90;;;;;;5074610;28;20238;-77
2023/01/06 09:23:37;;;;;;;0.80;0.77;;;10.90;99.90;;;;;;5074550;28;20716;-77
2023/01/06 09:26:02;;;;;;;0.63;0.60;;;10.90;99.90;;;;;;5074561;28;20568;-78
2023/01/06 09:28:28;;;;;;;0.90;0.60;;;10.80;99.90;;;;;;5073175;28;20175;-78
2023/01/06 09:30:53;;;;;;;0.70;0.67;;;10.80;99.90;;;;;;5072951;28;20174;-78
2023/01/06 09:33:19;;;;;;;0.50;0.50;;;10.80;99.90;;;;;;5074634;28;20171;-78
2023/01/06 09:35:45;;;;;;;0.90;0.70;;;10.80;99.90;;;;;;5073940;28;20251;-77
2023/01/06 09:38:12;;;;;;;2.63;0.70;;;10.80;99.90;;;;;;5073907;28;20163;-77
2023/01/06 09:41:15;;;;;;;1.03;0.60;;;10.80;99.90;;;;;;5073883;28;20257;-77
2023/01/06 09:44:16;;;;;;;0.70;0.50;;;10.70;99.90;;;;;;5073992;28;20173;-78
2023/01/06 09:46:45;;;;;;;0.50;0.50;;;10.70;99.90;;;;;;5075241;28;20190;-79
2023/01/06 09:49:20;;;;;;;0.57;0.50;;;10.70;99.90;;;;;;5073921;28;20183;-79
2023/01/06 09:51:45;;;;;;;2.10;0.60;;;10.70;99.90;;;;;;5073187;28;20701;-79
2023/01/06 09:54:19;;;;;;;0.60;0.60;;;10.70;99.90;;;;;;5075122;28;20178;-79
2023/01/06 09:56:51;;;;;;;1.37;0.70;;;10.70;99.90;;;;;;5074604;28;20205;-79
2023/01/06 09:59:30;;;;;;;1.27;0.57;;;10.70;99.90;;;;;;5074477;28;20241;-79
2023/01/06 10:01:58;;;;;;;1.10;0.80;;;10.80;99.90;;;;;;5073855;28;20162;-78
2023/01/06 10:04:29;;;;;;;1.87;0.80;;;10.70;99.90;;;;;;5074734;28;20167;-79
2023/01/06 10:07:00;;;;;;;1.27;0.77;;;10.70;99.90;;;;;;5073048;28;20199;-79
2023/01/06 10:09:34;;;;;;;0.87;0.60;;;10.80;99.90;;;;;;5074757;28;20194;-79
2023/01/06 10:12:37;;;;;;;0.93;0.70;;;10.80;99.90;;;;;;5074843;28;20166;-79
2023/01/06 10:15:23;;;;;;;1.13;0.80;;;10.80;99.90;;;;;;5074419;28;20257;-79
2023/01/06 10:18:15;;;;;;;2.20;1.00;;;10.80;99.90;;;;;;5073505;28;20168;-79
2023/01/06 10:20:56;;;;;;;1.73;0.93;;;10.80;99.90;;;;;;5074642;28;20155;-78
2023/01/06 10:23:43;;;;;;;2.27;0.77;;;10.80;99.90;;;;;;5074919;28;20155;-79
2023/01/06 10:26:12;;;;;;;1.30;0.67;;;10.80;99.90;;;;;;5074733;28;20270;-78
2023/01/06 10:28:42;;;;;;;0.70;0.63;;;10.90;99.90;;;;;;5074224;28;20633;-79
2023/01/06 10:31:14;;;;;;;1.10;0.70;;;10.90;99.90;;;;;;5075064;28;20178;-78
2023/01/06 10:33:48;;;;;;;2.40;0.73;;;10.90;99.90;;;;;;5073614;28;20179;-79
2023/01/06 10:36:17;;;;;;;2.97;0.60;;;11.00;99.90;;;;;;5073494;28;20209;-79
2023/01/06 10:38:45;;;;;;;1.37;0.80;;;11.00;99.90;;;;;;5073135;28;20171;-79
2023/01/06 10:41:26;;;;;;;0.70;0.60;;;11.00;99.90;;;;;;5074728;28;20251;-79
2023/01/06 10:43:51;;;;;;;4.03;0.80;;;11.00;99.90;;;;;;5073188;28;20174;-79
2023/01/06 10:46:17;;;;;;;0.73;0.67;;;11.00;99.90;;;;;;5073422;28;20194;-79
2023/01/06 10:48:45;;;;;;;2.00;0.63;;;11.00;99.90;;;;;;5074488;28;20171;-79
2023/01/06 10:51:23;;;;;;;1.23;0.90;;;11.00;99.90;;;;;;5075804;28;20163;-82
2023/01/06 10:53:48;;;;;;;1.90;0.80;;;11.00;99.90;;;;;;5073835;28;20266;-81
2023/01/06 10:56:15;;;;;;;1.13;0.77;;;11.10;99.90;;;;;;5073545;28;20226;-82
2023/01/06 10:58:53;;;;;;;3.57;0.90;;;11.10;99.90;;;;;;5074691;28;20181;-81
2023/01/06 11:01:24;;;;;;;3.23;0.73;;;11.20;99.90;;;;;;5073790;28;20194;-82
2023/01/06 11:04:11;;;;;;;1.77;0.80;;;11.20;99.90;;;;;;5073847;28;20245;-82
2023/01/06 11:06:53;;;;;;;1.33;0.80;;;11.20;99.90;;;;;;5075222;28;20187;-82
2023/01/06 11:09:40;;;;;;;0.90;0.70;;;11.30;99.90;;;;;;5073771;28;20182;-82
2023/01/06 11:12:12;;;;;;;0.90;0.63;;;11.30;99.90;;;;;;5075484;28;20254;-82
2023/01/06 11:14:39;;;;;;;2.07;1.10;;;11.40;99.90;;;;;;5073903;28;20171;-82
2023/01/06 11:17:14;;;;;;;1.47;0.60;;;11.40;99.90;;;;;;5075086;28;20203;-82
2023/01/06 11:19:42;;;;;;;1.20;0.93;;;11.50;99.90;;;;;;5074459;28;20193;-82
2023/01/06 11:22:38;;;;;;;0.90;0.80;;;11.50;99.90;;;;;;5074021;28;20177;-82
2023/01/06 11:25:28;;;;;;;1.07;0.90;;;11.60;99.90;;;;;;5071892;28;20185;-82
2023/01/06 11:28:15;;;;;;;2.10;0.80;;;11.60;99.90;;;;;;5075327;28;20148;-82
2023/01/06 11:31:00;;;;;;;1.20;0.83;;;11.60;99.90;;;;;;5075341;28;20179;-81
2023/01/06 11:33:28;;;;;;;0.67;0.63;;;11.60;99.90;;;;;;5075627;28;20164;-82
2023/01/06 11:35:55;;;;;;;0.70;0.70;;;11.60;99.90;;;;;;5075061;28;20199;-81
2023/01/06 11:38:21;;;;;;;1.33;1.03;;;11.60;99.90;;;;;;5074455;28;20656;-82
2023/01/06 11:40:49;;;;;;;1.13;0.70;;;11.60;99.90;;;;;;5078607;28;20179;-82
2023/01/06 11:43:20;;;;;;;1.70;0.90;;;11.70;99.90;;;;;;5078310;28;20174;-81
2023/01/06 11:45:46;;;;;;;1.83;0.80;;;11.80;99.90;;;;;;5077879;28;20202;-82
2023/01/06 11:48:39;;;;;;;2.97;1.07;;;11.80;99.90;;;;;;5076581;28;20179;-82
2023/01/06 11:51:07;;;;;;;1.10;0.90;;;11.90;99.90;;;;;;5077475;28;20174;-82
2023/01/06 11:53:35;;;;;;;2.87;0.80;;;11.90;99.90;;;;;;5078238;28;20198;-82
2023/01/06 11:56:12;;;;;;;1.47;0.90;;;11.90;99.90;;;;;;5078063;28;20198;-81
2023/01/06 11:59:00;;;;;;;1.80;0.90;;;11.90;99.90;;;;;;5076764;28;20166;-82
2023/01/06 12:01:46;;;;;;;1.37;0.70;;;12.00;99.90;;;;;;5078350;28;20179;-81
2023/01/06 12:04:37;;;;;;;2.40;1.20;;;12.00;99.90;;;;;;5076943;28;20171;-81
2023/01/06 12:07:23;;;;;;;2.70;0.80;;;12.00;99.90;;;;;;5078341;28;20280;-81
2023/01/06 12:09:50;;;;;;;2.40;0.90;;;12.00;99.90;;;;;;5047297;28;20198;-81
2023/01/06 12:12:23;;;;;;;3.20;1.00;;;12.10;99.90;;;;;;5078238;28;20543;-81
2023/01/06 12:14:48;;;;;;;1.27;0.70;;;12.10;99.90;;;;;;5078995;28;20159;-81
2023/01/06 12:17:36;;;;;;;1.70;0.80;;;12.10;99.90;;;;;;5077209;28;20271;-81
2023/01/06 12:20:07;;;;;;;1.93;0.70;;;12.10;99.90;;;;;;5077862;28;20538;-81
2023/01/06 12:22:53;;;;;;;1.23;0.87;;;12.10;99.90;;;;;;5078305;28;20152;-81
2023/01/06 12:25:36;;;;;;;1.40;0.77;;;12.10;99.90;;;;;;5076193;28;20198;-81
2023/01/06 12:28:06;;;;;;;4.37;0.90;;;12.20;99.90;;;;;;5077961;28;20155;-82
2023/01/06 12:30:41;;;;;;;0.93;0.77;;;12.20;99.90;;;;;;5078489;28;20201;-81
2023/01/06 12:33:20;;;;;;;1.87;0.80;;;12.20;99.90;;;;;;5077242;28;20162;-82
2023/01/06 12:35:50;;;;;;;2.03;0.80;;;12.30;99.90;;;;;;5076667;28;20213;-81
2023/01/06 12:38:40;;;;;;;2.70;0.80;;;12.30;99.90;;;;;;5076768;28;20652;-81
2023/01/06 12:41:14;;;;;;;1.40;0.63;;;12.40;99.90;;;;;;5078138;28;20171;-81
2023/01/06 12:43:47;;;;;;;1.23;0.70;;;12.50;99.90;;;;;;5077219;28;20167;-82
2023/01/06 12:46:27;;;;;;;2.10;0.83;;;12.60;99.90;;;;;;5078236;28;20218;-81
2023/01/06 12:48:58;;;;;;;1.23;0.80;;;12.70;99.90;;;;;;5078361;28;20178;-82
2023/01/06 12:51:48;;;;;;;1.33;0.80;;;12.70;99.90;;;;;;5078307;28;20155;-81
2023/01/06 12:54:28;;;;;;;2.17;0.90;;;12.70;99.90;;;;;;5077036;28;20167;-80
2023/01/06 12:57:16;;;;;;;0.73;0.70;;;12.70;99.90;;;;;;5076001;28;20198;-82
2023/01/06 13:00:16;;;;;;;1.97;0.70;;;12.80;99.90;;;;;;5076638;28;20734;-81
2023/01/06 13:02:50;;;;;;;1.93;0.80;;;12.80;99.90;;;;;;4999432;28;20263;-81
2023/01/06 13:05:39;;;;;;;1.30;0.60;;;12.70;99.90;;;;;;5064693;28;20205;-81
2023/01/06 13:08:27;;;;;;;1.07;0.60;;;12.70;99.90;;;;;;5076958;28;20752;-81
2023/01/06 13:11:28;;;;;;;0.70;0.67;;;12.70;99.90;;;;;;5076092;28;20644;-82
2023/01/06 13:14:30;;;;;;;2.47;1.20;;;12.60;99.90;;;;;;5077342;28;20296;-82
2023/01/06 13:17:05;;;;;;;1.47;0.70;;;12.70;99.90;;;;;;5075354;28;20685;-82